createdAt,value
2023-03-16T00:01:49.902Z,14.11
2023-03-16T00:04:17.347Z,14.11
2023-03-16T00:06:44.736Z,14.10
2023-03-16T00:09:13.254Z,14.10
2023-03-16T00:11:42.183Z,14.12
2023-03-16T00:14:09.974Z,14.12
2023-03-16T00:16:37.490Z,14.14
2023-03-16T00:19:05.831Z,14.14
2023-03-16T00:21:35.177Z,14.14
2023-03-16T00:24:03.838Z,14.13
2023-03-16T00:26:31.824Z,14.14
2023-03-16T00:29:01.726Z,14.13
2023-03-16T00:31:29.294Z,14.12
2023-03-16T00:33:56.743Z,14.11
2023-03-16T00:36:24.165Z,14.10
2023-03-16T00:38:52.263Z,14.10
2023-03-16T00:41:19.691Z,14.10
2023-03-16T00:43:48.776Z,14.10
2023-03-16T00:46:17.921Z,14.11
2023-03-16T00:48:46.670Z,14.11
2023-03-16T00:51:15.289Z,14.11
2023-03-16T00:53:43.887Z,14.12
2023-03-16T00:56:11.562Z,14.12
2023-03-16T00:58:40.214Z,14.11
2023-03-16T01:01:08.947Z,14.11
2023-03-16T01:03:38.014Z,14.11
2023-03-16T01:06:06.338Z,14.12
2023-03-16T01:08:34.325Z,14.12
2023-03-16T01:11:03.786Z,14.11
2023-03-16T01:13:32.452Z,14.11
2023-03-16T01:15:59.966Z,14.10
2023-03-16T01:18:27.621Z,14.09
2023-03-16T01:20:56.467Z,14.09
2023-03-16T01:23:23.943Z,14.08
2023-03-16T01:25:53.961Z,14.08
2023-03-16T01:28:23.495Z,14.07
2023-03-16T01:30:53.953Z,14.08
2023-03-16T01:33:21.781Z,14.08
2023-03-16T01:35:53.493Z,14.07
2023-03-16T01:38:22.779Z,14.08
2023-03-16T01:40:51.568Z,14.09
2023-03-16T01:43:20.016Z,14.08
2023-03-16T01:46:18.066Z,14.07
2023-03-16T01:48:48.120Z,14.07
2023-03-16T01:51:17.066Z,14.06
2023-03-16T01:53:46.854Z,14.06
2023-03-16T01:56:18.494Z,14.06
2023-03-16T01:58:46.687Z,14.05
2023-03-16T02:01:14.909Z,14.06
2023-03-16T02:03:43.693Z,14.06
2023-03-16T02:06:12.881Z,14.07
2023-03-16T02:08:41.127Z,14.07
2023-03-16T02:11:10.730Z,14.06
2023-03-16T02:13:38.217Z,14.07
2023-03-16T02:16:07.253Z,14.06
2023-03-16T02:18:35.172Z,14.06
2023-03-16T02:21:07.906Z,14.06
2023-03-16T02:23:35.311Z,14.06
2023-03-16T02:26:08.931Z,14.06
2023-03-16T02:28:47.943Z,14.05
2023-03-16T02:31:18.041Z,14.06
2023-03-16T02:33:45.904Z,14.05
2023-03-16T02:36:14.940Z,14.06
2023-03-16T02:38:42.664Z,14.06
2023-03-16T02:41:12.585Z,14.07
2023-03-16T02:43:42.729Z,14.06
2023-03-16T02:46:10.878Z,14.07
2023-03-16T02:48:44.297Z,14.06
2023-03-16T02:51:12.017Z,14.06
2023-03-16T02:53:39.520Z,14.05
2023-03-16T02:56:07.210Z,14.06
2023-03-16T02:58:34.782Z,14.06
2023-03-16T03:01:02.413Z,14.05
2023-03-16T03:03:29.982Z,14.05
2023-03-16T03:05:58.851Z,14.06
2023-03-16T03:08:26.314Z,14.06
2023-03-16T03:10:53.852Z,14.06
2023-03-16T03:13:21.312Z,14.05
2023-03-16T03:15:48.809Z,14.06
2023-03-16T03:18:16.301Z,14.06
2023-03-16T03:20:43.757Z,14.04
2023-03-16T03:23:12.553Z,14.03
2023-03-16T03:25:40.008Z,14.02
2023-03-16T03:28:07.494Z,14.02
2023-03-16T03:30:35.007Z,14.03
2023-03-16T03:33:02.701Z,14.01
2023-03-16T03:35:30.280Z,14.02
2023-03-16T03:37:57.748Z,14.04
2023-03-16T03:40:26.756Z,14.03
2023-03-16T03:42:54.431Z,14.03
2023-03-16T03:45:21.845Z,14.03
2023-03-16T03:47:49.301Z,14.03
2023-03-16T03:50:16.829Z,14.03
2023-03-16T03:52:44.363Z,14.02
2023-03-16T03:55:11.797Z,14.01
2023-03-16T03:57:41.205Z,14.03
2023-03-16T04:00:11.354Z,14.03
2023-03-16T04:02:39.246Z,14.01
2023-03-16T04:05:07.379Z,14.02
2023-03-16T04:07:34.831Z,14.03
2023-03-16T04:10:02.344Z,14.02
2023-03-16T04:12:29.792Z,14.04
2023-03-16T04:14:58.594Z,14.04
2023-03-16T04:17:26.097Z,14.04
2023-03-16T04:19:53.542Z,14.04
2023-03-16T04:22:23.152Z,14.04
2023-03-16T04:24:52.263Z,14.04
2023-03-16T04:27:19.727Z,14.05
2023-03-16T04:29:47.187Z,14.04
2023-03-16T04:32:16.001Z,14.05
2023-03-16T04:34:43.734Z,14.06
2023-03-16T04:37:11.928Z,14.05
2023-03-16T04:39:39.388Z,14.04
2023-03-16T04:42:07.601Z,14.04
2023-03-16T04:44:35.048Z,14.03
2023-03-16T04:47:02.512Z,14.02
2023-03-16T04:49:31.325Z,14.01
2023-03-16T04:51:58.772Z,14.01
2023-03-16T04:54:26.172Z,14.01
2023-03-16T04:56:53.610Z,14.03
2023-03-16T04:59:21.052Z,14.01
2023-03-16T05:01:48.576Z,14.02
2023-03-16T05:04:19.460Z,14.02
2023-03-16T05:06:48.837Z,14.03
2023-03-16T05:09:16.342Z,14.05
2023-03-16T05:11:43.839Z,14.04
2023-03-16T05:14:11.311Z,14.05
2023-03-16T05:16:38.736Z,14.06
2023-03-16T05:19:06.196Z,14.07
2023-03-16T05:21:34.267Z,14.08
2023-03-16T05:24:03.138Z,14.08
2023-03-16T05:26:30.571Z,14.11
2023-03-16T05:28:58.540Z,14.11
2023-03-16T05:31:26.563Z,14.12
2023-03-16T05:33:54.154Z,14.12
2023-03-16T05:36:21.635Z,14.13
2023-03-16T05:38:49.126Z,14.14
2023-03-16T05:41:18.325Z,14.16
2023-03-16T05:43:45.766Z,14.16
2023-03-16T05:46:13.617Z,14.17
2023-03-16T05:48:41.097Z,14.18
2023-03-16T05:51:08.499Z,14.18
2023-03-16T05:53:36.254Z,14.18
2023-03-16T05:56:03.666Z,14.17
2023-03-16T05:58:33.928Z,14.17
2023-03-16T06:01:02.227Z,14.17
2023-03-16T06:03:29.937Z,14.17
2023-03-16T06:05:57.475Z,14.16
2023-03-16T06:08:24.953Z,14.14
2023-03-16T06:10:52.404Z,14.14
2023-03-16T06:13:19.944Z,14.14
2023-03-16T06:15:48.759Z,14.14
2023-03-16T06:18:16.255Z,14.14
2023-03-16T06:20:43.895Z,14.14
2023-03-16T06:23:11.285Z,14.14
2023-03-16T06:25:40.661Z,14.12
2023-03-16T06:28:08.695Z,14.12
2023-03-16T06:30:36.089Z,14.12
2023-03-16T06:33:05.125Z,14.10
2023-03-16T06:35:32.666Z,14.11
2023-03-16T06:38:00.253Z,14.12
2023-03-16T06:40:27.923Z,14.12
2023-03-16T06:42:55.526Z,14.13
2023-03-16T06:45:23.033Z,14.13
2023-03-16T06:47:50.468Z,14.13
2023-03-16T06:50:19.480Z,14.13
2023-03-16T06:52:46.928Z,14.14
2023-03-16T06:55:14.517Z,14.14
2023-03-16T06:57:42.731Z,14.14
2023-03-16T07:00:11.239Z,14.14
2023-03-16T07:02:40.428Z,14.14
2023-03-16T07:05:08.373Z,14.16
2023-03-16T07:07:37.138Z,14.14
2023-03-16T07:10:04.785Z,14.14
2023-03-16T07:12:32.455Z,14.15
2023-03-16T07:14:59.916Z,14.15
2023-03-16T07:17:27.336Z,14.14
2023-03-16T07:19:54.851Z,14.16
2023-03-16T07:22:22.966Z,14.16
2023-03-16T07:24:57.241Z,14.17
2023-03-16T07:27:24.656Z,14.16
2023-03-16T07:29:52.928Z,14.16
2023-03-16T07:32:20.641Z,14.14
2023-03-16T07:34:48.053Z,14.15
2023-03-16T07:37:17.148Z,14.16
2023-03-16T07:39:45.806Z,14.16
2023-03-16T07:42:14.625Z,14.15
2023-03-16T07:44:42.258Z,14.14
2023-03-16T07:47:11.641Z,14.14
2023-03-16T07:49:39.077Z,14.14
2023-03-16T07:52:06.645Z,14.14
2023-03-16T07:54:34.183Z,14.13
2023-03-16T07:57:01.631Z,14.13
2023-03-16T07:59:31.314Z,14.13
2023-03-16T08:01:58.875Z,14.13
2023-03-16T08:04:26.320Z,14.13
2023-03-16T08:06:59.709Z,14.13
2023-03-16T08:09:27.223Z,14.14
2023-03-16T08:11:54.898Z,14.14
2023-03-16T08:14:22.374Z,14.14
2023-03-16T08:16:51.585Z,14.14
2023-03-16T08:19:20.236Z,14.14
2023-03-16T08:22:00.714Z,14.14
2023-03-16T08:24:30.653Z,14.14
2023-03-16T08:26:58.473Z,14.14
2023-03-16T08:29:25.969Z,14.14
2023-03-16T08:31:56.292Z,14.14
2023-03-16T08:34:24.174Z,14.14
2023-03-16T08:36:51.669Z,14.14
2023-03-16T08:39:19.139Z,14.14
2023-03-16T08:41:48.238Z,14.13
2023-03-16T08:44:15.727Z,14.13
2023-03-16T08:46:43.402Z,14.14
2023-03-16T08:49:13.630Z,14.14
2023-03-16T08:51:41.751Z,14.13
2023-03-16T08:54:10.830Z,14.15
2023-03-16T08:56:38.270Z,14.15
2023-03-16T08:59:05.681Z,14.14
2023-03-16T09:01:34.008Z,14.16
2023-03-16T09:04:03.237Z,14.16
2023-03-16T09:06:32.279Z,14.17
2023-03-16T09:09:00.037Z,14.16
2023-03-16T09:11:30.492Z,14.17
2023-03-16T09:13:58.223Z,14.17
2023-03-16T09:16:25.979Z,14.17
2023-03-16T09:18:53.528Z,14.17
2023-03-16T09:21:21.037Z,14.16
2023-03-16T09:23:49.822Z,14.17
2023-03-16T09:26:17.273Z,14.17
2023-03-16T09:28:44.918Z,14.16
2023-03-16T09:31:16.591Z,14.16
2023-03-16T09:33:44.055Z,14.16
2023-03-16T09:36:12.399Z,14.16
2023-03-16T09:38:39.978Z,14.16
2023-03-16T09:41:10.777Z,14.16
2023-03-16T09:43:49.329Z,14.15
2023-03-16T09:46:21.724Z,14.17
2023-03-16T09:48:49.447Z,14.16
2023-03-16T09:51:20.928Z,14.16
2023-03-16T09:53:51.444Z,14.16
2023-03-16T09:56:24.751Z,14.17
2023-03-16T09:58:52.628Z,14.16
2023-03-16T10:01:27.315Z,14.15
2023-03-16T10:04:10.700Z,14.14
2023-03-16T10:06:42.738Z,14.16
2023-03-16T10:09:18.691Z,14.17
2023-03-16T10:11:48.230Z,14.16
2023-03-16T10:14:20.063Z,14.15
2023-03-16T10:16:48.925Z,14.16
2023-03-16T10:19:19.457Z,14.17
2023-03-16T10:21:48.186Z,14.15
2023-03-16T10:24:20.300Z,14.17
2023-03-16T10:26:51.876Z,14.17
2023-03-16T10:29:19.314Z,14.16
2023-03-16T10:31:47.445Z,14.16
2023-03-16T10:34:15.343Z,14.17
2023-03-16T10:36:44.993Z,14.17
2023-03-16T10:39:13.634Z,14.18
2023-03-16T10:41:43.577Z,14.18
2023-03-16T10:44:13.291Z,14.17
2023-03-16T10:46:41.676Z,14.17
2023-03-16T10:49:20.947Z,14.17
2023-03-16T10:51:48.390Z,14.17
2023-03-16T10:54:17.321Z,14.18
2023-03-16T10:56:46.054Z,14.16
2023-03-16T10:59:17.064Z,14.17
2023-03-16T11:01:50.027Z,14.18
2023-03-16T11:04:18.090Z,14.17
2023-03-16T11:06:50.325Z,14.18
2023-03-16T11:09:21.211Z,14.17
2023-03-16T11:11:49.612Z,14.17
2023-03-16T11:14:20.551Z,14.16
2023-03-16T11:16:51.068Z,14.16
2023-03-16T11:19:21.331Z,14.16
2023-03-16T11:21:54.840Z,14.16
2023-03-16T11:24:25.306Z,14.18
2023-03-16T11:26:55.637Z,14.16
2023-03-16T11:29:26.935Z,14.17
2023-03-16T11:31:55.593Z,14.17
2023-03-16T11:34:28.265Z,14.18
2023-03-16T11:36:56.639Z,14.18
2023-03-16T11:39:40.461Z,14.19
2023-03-16T11:42:32.064Z,14.19
2023-03-16T11:45:10.074Z,14.20
2023-03-16T11:47:53.981Z,14.19
2023-03-16T11:50:25.869Z,14.19
2023-03-16T11:52:58.317Z,14.20
2023-03-16T11:55:30.560Z,14.19
2023-03-16T11:58:04.337Z,14.19
2023-03-16T12:00:37.088Z,14.21
2023-03-16T12:03:24.863Z,14.20
2023-03-16T12:05:58.069Z,14.21
2023-03-16T12:08:30.584Z,14.21
2023-03-16T12:11:02.307Z,14.22
2023-03-16T12:13:34.630Z,14.22
2023-03-16T12:16:06.639Z,14.23
2023-03-16T12:18:37.635Z,14.23
2023-03-16T12:21:07.221Z,14.23
2023-03-16T12:23:37.699Z,14.23
2023-03-16T12:26:05.287Z,14.25
2023-03-16T12:28:33.386Z,14.25
2023-03-16T12:31:10.327Z,14.24
2023-03-16T12:33:52.870Z,14.24
2023-03-16T12:36:35.881Z,14.24
2023-03-16T12:39:06.602Z,14.24
2023-03-16T12:41:36.419Z,14.25
2023-03-16T12:44:12.455Z,14.24
2023-03-16T12:46:47.802Z,14.25
2023-03-16T12:49:16.087Z,14.24
2023-03-16T12:51:45.435Z,14.24
2023-03-16T12:54:20.262Z,14.24
2023-03-16T12:56:49.059Z,14.24
2023-03-16T12:59:17.920Z,14.23
2023-03-16T13:01:49.443Z,14.23
2023-03-16T13:04:19.188Z,14.23
2023-03-16T13:06:49.389Z,14.23
2023-03-16T13:09:19.078Z,14.23
2023-03-16T13:11:50.312Z,14.23
2023-03-16T13:14:31.357Z,14.24
2023-03-16T13:17:06.468Z,14.23
2023-03-16T13:19:37.699Z,14.23
2023-03-16T13:22:18.390Z,14.23
2023-03-16T13:24:51.728Z,14.22
2023-03-16T13:27:24.269Z,14.24
2023-03-16T13:29:56.387Z,14.24
2023-03-16T13:32:25.917Z,14.24
2023-03-16T13:34:54.366Z,14.23
2023-03-16T13:37:24.036Z,14.25
2023-03-16T13:39:55.539Z,14.25
2023-03-16T13:42:24.418Z,14.26
2023-03-16T13:44:54.055Z,14.26
2023-03-16T13:47:21.598Z,14.26
2023-03-16T13:49:51.659Z,14.27
2023-03-16T13:52:22.789Z,14.29
2023-03-16T13:54:51.337Z,14.28
2023-03-16T13:57:20.663Z,14.28
2023-03-16T13:59:48.335Z,14.28
2023-03-16T14:02:18.586Z,14.27
2023-03-16T14:04:47.016Z,14.27
2023-03-16T14:07:17.804Z,14.28
2023-03-16T14:09:46.614Z,14.27
2023-03-16T14:12:15.668Z,14.26
2023-03-16T14:14:43.491Z,14.26
2023-03-16T14:17:12.395Z,14.25
2023-03-16T14:19:44.329Z,14.24
2023-03-16T14:22:13.800Z,14.25
2023-03-16T14:24:43.105Z,14.25
2023-03-16T14:27:16.839Z,14.26
2023-03-16T14:29:44.702Z,14.24
2023-03-16T14:32:21.849Z,14.24
2023-03-16T14:34:50.276Z,14.25
2023-03-16T14:37:19.219Z,14.25
2023-03-16T14:39:59.121Z,14.26
2023-03-16T14:42:28.696Z,14.25
2023-03-16T14:44:57.218Z,14.25
2023-03-16T14:47:26.063Z,14.25
2023-03-16T14:49:53.694Z,14.26
2023-03-16T14:52:24.921Z,14.25
2023-03-16T14:54:55.163Z,14.26
2023-03-16T14:57:22.893Z,14.25
2023-03-16T14:59:50.413Z,14.26
2023-03-16T15:02:20.307Z,14.26
2023-03-16T15:04:48.979Z,14.26
2023-03-16T15:07:22.386Z,14.27
2023-03-16T15:09:51.597Z,14.27
2023-03-16T15:12:21.046Z,14.26
2023-03-16T15:15:06.593Z,14.27
2023-03-16T15:17:34.167Z,14.27
2023-03-16T15:20:01.885Z,14.27
2023-03-16T15:22:30.816Z,14.29
2023-03-16T15:25:00.018Z,14.28
2023-03-16T15:27:32.854Z,14.27
2023-03-16T15:30:00.846Z,14.29
2023-03-16T15:32:28.393Z,14.28
2023-03-16T15:34:55.833Z,14.30
2023-03-16T15:37:27.500Z,14.28
2023-03-16T15:39:55.115Z,14.29
2023-03-16T15:42:22.710Z,14.29
2023-03-16T15:44:51.524Z,14.29
2023-03-16T15:47:19.263Z,14.28
2023-03-16T15:49:48.060Z,14.28
2023-03-16T15:52:22.612Z,14.27
2023-03-16T15:54:50.052Z,14.27
2023-03-16T15:57:18.283Z,14.27
2023-03-16T15:59:47.457Z,14.28
2023-03-16T16:02:25.411Z,14.28
2023-03-16T16:04:52.902Z,14.27
2023-03-16T16:07:20.389Z,14.26
2023-03-16T16:09:47.806Z,14.28
2023-03-16T16:12:16.615Z,14.29
2023-03-16T16:14:44.126Z,14.28
2023-03-16T16:17:11.996Z,14.28
2023-03-16T16:19:40.827Z,14.28
2023-03-16T16:22:12.877Z,14.28
2023-03-16T16:24:40.639Z,14.27
2023-03-16T16:27:10.859Z,14.29
2023-03-16T16:29:38.295Z,14.29
2023-03-16T16:32:17.429Z,14.27
2023-03-16T16:35:01.726Z,14.29
2023-03-16T16:37:31.311Z,14.28
2023-03-16T16:39:58.830Z,14.28
2023-03-16T16:42:26.511Z,14.29
2023-03-16T16:44:54.698Z,14.29
2023-03-16T16:47:22.441Z,14.28
2023-03-16T16:49:52.014Z,14.28
2023-03-16T16:52:19.812Z,14.28
2023-03-16T16:54:47.289Z,14.28
2023-03-16T16:57:18.890Z,14.27
2023-03-16T16:59:47.980Z,14.29
2023-03-16T17:02:22.173Z,14.28
2023-03-16T17:04:52.178Z,14.29
2023-03-16T17:07:19.687Z,14.29
2023-03-16T17:09:47.174Z,14.29
2023-03-16T17:12:17.373Z,14.29
2023-03-16T17:14:44.956Z,14.30
2023-03-16T17:17:15.020Z,14.30
2023-03-16T17:19:46.436Z,14.30
2023-03-16T17:22:21.132Z,14.30
2023-03-16T17:24:49.506Z,14.30
2023-03-16T17:27:18.640Z,14.30
2023-03-16T17:29:46.073Z,14.31
2023-03-16T17:32:18.011Z,14.30
2023-03-16T17:34:45.515Z,14.30
2023-03-16T17:37:14.049Z,14.30
2023-03-16T17:39:42.921Z,14.30
2023-03-16T17:42:12.870Z,14.31
2023-03-16T17:44:41.909Z,14.31
2023-03-16T17:47:14.254Z,14.31
2023-03-16T17:49:41.720Z,14.30
2023-03-16T17:52:13.896Z,14.30
2023-03-16T17:54:42.817Z,14.31
2023-03-16T17:57:16.337Z,14.31
2023-03-16T17:59:43.876Z,14.31
2023-03-16T18:02:24.530Z,14.30
2023-03-16T18:04:52.167Z,14.31
2023-03-16T18:07:19.613Z,14.31
2023-03-16T18:09:48.395Z,14.31
2023-03-16T18:12:16.652Z,14.32
2023-03-16T18:14:44.095Z,14.32
2023-03-16T18:17:17.392Z,14.31
2023-03-16T18:19:45.466Z,14.32
2023-03-16T18:22:19.301Z,14.34
2023-03-16T18:24:48.574Z,14.34
2023-03-16T18:27:16.530Z,14.34
2023-03-16T18:29:44.456Z,14.33
2023-03-16T18:32:17.840Z,14.34
2023-03-16T18:34:46.026Z,14.35
2023-03-16T18:37:17.172Z,14.35
2023-03-16T18:39:44.648Z,14.36
2023-03-16T18:42:19.041Z,14.37
2023-03-16T18:44:46.521Z,14.37
2023-03-16T18:47:18.364Z,14.36
2023-03-16T18:49:51.224Z,14.37
2023-03-16T18:52:19.918Z,14.36
2023-03-16T18:54:48.157Z,14.37
2023-03-16T18:57:18.704Z,14.38
2023-03-16T18:59:46.544Z,14.38
2023-03-16T19:02:25.904Z,14.37
2023-03-16T19:04:53.468Z,14.37
2023-03-16T19:07:23.532Z,14.38
2023-03-16T19:09:51.046Z,14.38
2023-03-16T19:12:20.870Z,14.36
2023-03-16T19:14:48.347Z,14.37
2023-03-16T19:17:16.405Z,14.36
2023-03-16T19:19:43.871Z,14.36
2023-03-16T19:22:16.377Z,14.37
2023-03-16T19:24:46.854Z,14.37
2023-03-16T19:27:18.132Z,14.36
2023-03-16T19:29:46.969Z,14.36
2023-03-16T19:32:17.242Z,14.36
2023-03-16T19:34:44.763Z,14.37
2023-03-16T19:37:13.367Z,14.37
2023-03-16T19:39:40.845Z,14.36
2023-03-16T19:42:15.906Z,14.37
2023-03-16T19:44:44.210Z,14.36
2023-03-16T19:47:22.637Z,14.37
2023-03-16T19:49:50.116Z,14.36
2023-03-16T19:52:17.600Z,14.38
2023-03-16T19:54:45.060Z,14.36
2023-03-16T19:57:14.178Z,14.37
2023-03-16T19:59:42.381Z,14.37
2023-03-16T20:02:23.088Z,14.37
2023-03-16T20:04:50.597Z,14.37
2023-03-16T20:07:18.062Z,14.37
2023-03-16T20:09:45.930Z,14.37
2023-03-16T20:12:21.180Z,14.38
2023-03-16T20:14:48.747Z,14.38
2023-03-16T20:17:21.078Z,14.39
2023-03-16T20:19:50.126Z,14.39
2023-03-16T20:22:18.377Z,14.39
2023-03-16T20:24:46.622Z,14.39
2023-03-16T20:27:14.154Z,14.38
2023-03-16T20:29:41.874Z,14.41
2023-03-16T20:32:15.128Z,14.39
2023-03-16T20:34:42.621Z,14.40
2023-03-16T20:37:20.802Z,14.40
2023-03-16T20:39:49.115Z,14.39
2023-03-16T20:42:17.716Z,14.40
2023-03-16T20:44:45.372Z,14.39
2023-03-16T20:47:14.294Z,14.39
2023-03-16T20:49:41.745Z,14.39
2023-03-16T20:52:16.321Z,14.38
2023-03-16T20:54:43.837Z,14.38
2023-03-16T20:57:16.633Z,14.39
2023-03-16T20:59:46.810Z,14.38
2023-03-16T21:02:25.461Z,14.39
2023-03-16T21:04:53.073Z,14.38
2023-03-16T21:07:21.894Z,14.39
2023-03-16T21:09:50.316Z,14.39
2023-03-16T21:12:22.088Z,14.38
2023-03-16T21:14:49.552Z,14.38
2023-03-16T21:17:24.045Z,14.37
2023-03-16T21:19:52.763Z,14.37
2023-03-16T21:22:24.349Z,14.38
2023-03-16T21:24:52.430Z,14.37
2023-03-16T21:27:23.040Z,14.37
2023-03-16T21:29:50.797Z,14.37
2023-03-16T21:32:20.958Z,14.37
2023-03-16T21:34:49.398Z,14.37
2023-03-16T21:37:17.967Z,14.37
2023-03-16T21:39:47.872Z,14.38
2023-03-16T21:42:17.156Z,14.37
2023-03-16T21:44:44.658Z,14.38
2023-03-16T21:47:20.372Z,14.38
2023-03-16T21:49:47.813Z,14.38
2023-03-16T21:52:22.136Z,14.39
2023-03-16T21:54:50.950Z,14.38
2023-03-16T21:57:18.425Z,14.38
2023-03-16T21:59:45.896Z,14.38
2023-03-16T22:02:18.678Z,14.38
2023-03-16T22:04:46.365Z,14.38
2023-03-16T22:07:14.106Z,14.39
2023-03-16T22:09:41.785Z,14.37
2023-03-16T22:12:12.028Z,14.39
2023-03-16T22:14:39.724Z,14.38
2023-03-16T22:17:07.492Z,14.37
2023-03-16T22:19:35.521Z,14.37
2023-03-16T22:22:03.083Z,14.37
2023-03-16T22:24:34.893Z,14.36
2023-03-16T22:27:02.556Z,14.37
2023-03-16T22:29:33.377Z,14.37
2023-03-16T22:32:03.080Z,14.36
2023-03-16T22:34:32.182Z,14.37
2023-03-16T22:37:00.851Z,14.37
2023-03-16T22:39:37.631Z,14.37
2023-03-16T22:42:17.793Z,14.38
2023-03-16T22:44:46.573Z,14.36
2023-03-16T22:47:21.007Z,14.37
2023-03-16T22:49:48.429Z,14.36
2023-03-16T22:52:16.090Z,14.36
2023-03-16T22:54:43.757Z,14.36
2023-03-16T22:57:13.758Z,14.35
2023-03-16T22:59:41.477Z,14.36
2023-03-16T23:02:13.975Z,14.36
2023-03-16T23:04:41.441Z,14.36
2023-03-16T23:07:11.789Z,14.36
2023-03-16T23:09:39.460Z,14.35
2023-03-16T23:12:12.002Z,14.35
2023-03-16T23:14:39.538Z,14.35
2023-03-16T23:17:13.458Z,14.35
2023-03-16T23:19:42.571Z,14.35
2023-03-16T23:22:11.328Z,14.34
2023-03-16T23:24:39.090Z,14.35
2023-03-16T23:27:08.210Z,14.35
2023-03-16T23:29:35.705Z,14.34
2023-03-16T23:32:04.359Z,14.35
2023-03-16T23:34:32.076Z,14.33
2023-03-16T23:37:00.872Z,14.33
2023-03-16T23:39:29.046Z,14.34
2023-03-16T23:41:57.260Z,14.34
2023-03-16T23:44:27.031Z,14.34
2023-03-16T23:46:54.515Z,14.32
2023-03-16T23:49:23.166Z,14.32
2023-03-16T23:51:51.276Z,14.31
2023-03-16T23:54:21.050Z,14.32
2023-03-16T23:56:48.639Z,14.31
2023-03-16T23:59:16.379Z,14.30
